Hempstead, New York
Current Conditions -  °F | °C
As of 6:51 AM on Monday 26 Jan 2015 (Local Time) from KJFK Reporting Station
Overcast Overcast  
Wind Chill: 16°   Ceiling: 3300
Heat Index: 27°   Visibility: 9mi
Dew Point: 11°   Wind: 14mph
Humidity: 51%   Direction: 50°NE
Pressure: 30.02"   Gusts: NA
Location:  40.71°N, 73.62°W
Report Text: KJFK 261151Z 05012KT 9SM OVC033 M03/M12 A3002 RMK AO2 SNE49 SLP164 931000 P0000 60000 T10281117 11011 21039 58004 $
Loading
Personal Weather Stations






























Interactive Weather Map New forecast layout! Learn more

10-Day Weather Forecast

Advertisements
Track Severe Weather on mobile